sensor_id;sensor_type;location;lat;lon;timestamp;temperature;humidity
21108;DHT22;10712;52.944;9.098;2022-10-24T00:00:50;14.00;94.30
21108;DHT22;10712;52.944;9.098;2022-10-24T00:03:16;14.00;94.30
21108;DHT22;10712;52.944;9.098;2022-10-24T00:05:46;14.00;94.30
21108;DHT22;10712;52.944;9.098;2022-10-24T00:08:13;13.90;94.30
21108;DHT22;10712;52.944;9.098;2022-10-24T00:10:42;13.90;94.30
21108;DHT22;10712;52.944;9.098;2022-10-24T00:13:11;13.90;94.30
21108;DHT22;10712;52.944;9.098;2022-10-24T00:15:38;13.90;94.30
21108;DHT22;10712;52.944;9.098;2022-10-24T00:18:08;13.90;94.30
21108;DHT22;10712;52.944;9.098;2022-10-24T00:20:34;13.90;94.30
21108;DHT22;10712;52.944;9.098;2022-10-24T00:23:01;13.80;94.30
21108;DHT22;10712;52.944;9.098;2022-10-24T00:25:27;13.80;94.30
21108;DHT22;10712;52.944;9.098;2022-10-24T00:27:52;13.80;94.30
21108;DHT22;10712;52.944;9.098;2022-10-24T00:30:19;13.80;94.30
21108;DHT22;10712;52.944;9.098;2022-10-24T00:32:44;13.80;94.30
21108;DHT22;10712;52.944;9.098;2022-10-24T00:35:10;13.80;94.30
21108;DHT22;10712;52.944;9.098;2022-10-24T00:37:36;13.80;94.30
21108;DHT22;10712;52.944;9.098;2022-10-24T00:40:03;13.80;94.30
21108;DHT22;10712;52.944;9.098;2022-10-24T00:42:30;13.80;94.30
21108;DHT22;10712;52.944;9.098;2022-10-24T00:44:56;13.80;94.30
21108;DHT22;10712;52.944;9.098;2022-10-24T00:47:24;13.80;94.30
21108;DHT22;10712;52.944;9.098;2022-10-24T00:49:56;13.90;94.30
21108;DHT22;10712;52.944;9.098;2022-10-24T00:52:29;13.90;94.30
21108;DHT22;10712;52.944;9.098;2022-10-24T00:54:59;13.90;94.30
21108;DHT22;10712;52.944;9.098;2022-10-24T00:57:48;13.90;94.30
21108;DHT22;10712;52.944;9.098;2022-10-24T01:00:23;13.90;94.30
21108;DHT22;10712;52.944;9.098;2022-10-24T01:02:52;13.80;94.30
21108;DHT22;10712;52.944;9.098;2022-10-24T01:05:19;13.80;94.30
21108;DHT22;10712;52.944;9.098;2022-10-24T01:16:57;13.70;94.30
21108;DHT22;10712;52.944;9.098;2022-10-24T01:20:03;13.70;94.30
21108;DHT22;10712;52.944;9.098;2022-10-24T01:28:23;13.60;94.30
21108;DHT22;10712;52.944;9.098;2022-10-24T01:31:09;13.50;94.30
21108;DHT22;10712;52.944;9.098;2022-10-24T01:33:47;13.50;94.30
21108;DHT22;10712;52.944;9.098;2022-10-24T01:36:32;13.50;94.30
21108;DHT22;10712;52.944;9.098;2022-10-24T01:39:18;13.50;94.30
21108;DHT22;10712;52.944;9.098;2022-10-24T01:41:46;13.40;94.30
21108;DHT22;10712;52.944;9.098;2022-10-24T01:44:21;13.40;94.30
21108;DHT22;10712;52.944;9.098;2022-10-24T01:47:00;13.40;94.30
21108;DHT22;10712;52.944;9.098;2022-10-24T01:49:35;13.30;94.30
21108;DHT22;10712;52.944;9.098;2022-10-24T01:52:07;13.30;94.30
21108;DHT22;10712;52.944;9.098;2022-10-24T01:54:38;13.30;94.30
21108;DHT22;10712;52.944;9.098;2022-10-24T01:57:06;13.20;94.30
21108;DHT22;10712;52.944;9.098;2022-10-24T02:02:09;13.20;94.30
21108;DHT22;10712;52.944;9.098;2022-10-24T02:04:48;13.20;94.30
21108;DHT22;10712;52.944;9.098;2022-10-24T02:07:20;13.20;94.30
21108;DHT22;10712;52.944;9.098;2022-10-24T02:09:52;13.20;94.30
21108;DHT22;10712;52.944;9.098;2022-10-24T02:12:24;13.20;94.30
21108;DHT22;10712;52.944;9.098;2022-10-24T02:14:56;13.10;94.30
21108;DHT22;10712;52.944;9.098;2022-10-24T02:17:29;13.10;94.30
21108;DHT22;10712;52.944;9.098;2022-10-24T02:19:55;13.10;94.30
21108;DHT22;10712;52.944;9.098;2022-10-24T02:22:29;13.10;94.30
21108;DHT22;10712;52.944;9.098;2022-10-24T02:25:08;13.10;94.30
21108;DHT22;10712;52.944;9.098;2022-10-24T02:27:47;13.10;94.30
21108;DHT22;10712;52.944;9.098;2022-10-24T02:30:22;13.10;94.30
21108;DHT22;10712;52.944;9.098;2022-10-24T02:32:53;13.10;94.30
21108;DHT22;10712;52.944;9.098;2022-10-24T02:35:25;13.10;94.30
21108;DHT22;10712;52.944;9.098;2022-10-24T02:37:58;13.10;94.30
21108;DHT22;10712;52.944;9.098;2022-10-24T02:40:28;13.10;94.30
21108;DHT22;10712;52.944;9.098;2022-10-24T02:42:55;13.20;94.30
21108;DHT22;10712;52.944;9.098;2022-10-24T02:45:23;13.20;94.30
21108;DHT22;10712;52.944;9.098;2022-10-24T02:47:54;13.20;94.30
21108;DHT22;10712;52.944;9.098;2022-10-24T02:50:24;13.20;94.30
21108;DHT22;10712;52.944;9.098;2022-10-24T02:52:51;13.20;94.30
21108;DHT22;10712;52.944;9.098;2022-10-24T02:55:16;13.20;94.30
21108;DHT22;10712;52.944;9.098;2022-10-24T02:57:42;13.20;94.30
21108;DHT22;10712;52.944;9.098;2022-10-24T03:00:08;13.20;94.30
21108;DHT22;10712;52.944;9.098;2022-10-24T03:02:35;13.20;94.30
21108;DHT22;10712;52.944;9.098;2022-10-24T03:05:01;13.20;94.30
21108;DHT22;10712;52.944;9.098;2022-10-24T03:07:27;13.20;94.30
21108;DHT22;10712;52.944;9.098;2022-10-24T03:09:53;13.20;94.30
21108;DHT22;10712;52.944;9.098;2022-10-24T03:12:19;13.20;94.30
21108;DHT22;10712;52.944;9.098;2022-10-24T03:14:45;13.20;94.30
21108;DHT22;10712;52.944;9.098;2022-10-24T03:17:11;13.20;94.30
21108;DHT22;10712;52.944;9.098;2022-10-24T03:19:36;13.20;94.30
21108;DHT22;10712;52.944;9.098;2022-10-24T03:22:03;13.20;94.30
21108;DHT22;10712;52.944;9.098;2022-10-24T03:24:29;13.20;94.30
21108;DHT22;10712;52.944;9.098;2022-10-24T03:26:55;13.20;94.30
21108;DHT22;10712;52.944;9.098;2022-10-24T03:29:21;13.20;94.30
21108;DHT22;10712;52.944;9.098;2022-10-24T03:31:47;13.10;94.30
21108;DHT22;10712;52.944;9.098;2022-10-24T03:34:13;13.10;94.30
21108;DHT22;10712;52.944;9.098;2022-10-24T03:36:39;13.10;94.30
21108;DHT22;10712;52.944;9.098;2022-10-24T03:39:04;13.10;94.30
21108;DHT22;10712;52.944;9.098;2022-10-24T03:41:30;13.10;94.30
21108;DHT22;10712;52.944;9.098;2022-10-24T03:43:56;13.10;94.30
21108;DHT22;10712;52.944;9.098;2022-10-24T03:46:22;13.10;94.30
21108;DHT22;10712;52.944;9.098;2022-10-24T03:48:48;13.00;94.30
21108;DHT22;10712;52.944;9.098;2022-10-24T03:51:13;13.00;94.30
21108;DHT22;10712;52.944;9.098;2022-10-24T03:53:40;13.00;94.30
21108;DHT22;10712;52.944;9.098;2022-10-24T03:56:06;13.00;94.30
21108;DHT22;10712;52.944;9.098;2022-10-24T03:58:32;13.00;94.30
21108;DHT22;10712;52.944;9.098;2022-10-24T04:00:59;13.00;94.30
21108;DHT22;10712;52.944;9.098;2022-10-24T04:03:25;13.00;94.30
21108;DHT22;10712;52.944;9.098;2022-10-24T04:05:52;13.00;94.30
21108;DHT22;10712;52.944;9.098;2022-10-24T04:08:18;13.00;94.30
21108;DHT22;10712;52.944;9.098;2022-10-24T04:10:44;13.00;94.30
21108;DHT22;10712;52.944;9.098;2022-10-24T04:13:10;13.00;94.30
21108;DHT22;10712;52.944;9.098;2022-10-24T04:15:36;13.00;94.30
21108;DHT22;10712;52.944;9.098;2022-10-24T04:18:02;13.00;94.30
21108;DHT22;10712;52.944;9.098;2022-10-24T04:20:28;13.00;94.30
21108;DHT22;10712;52.944;9.098;2022-10-24T04:22:54;13.00;94.30
21108;DHT22;10712;52.944;9.098;2022-10-24T04:25:20;13.00;94.30
21108;DHT22;10712;52.944;9.098;2022-10-24T04:27:46;13.00;94.30
21108;DHT22;10712;52.944;9.098;2022-10-24T04:30:13;13.00;94.30
21108;DHT22;10712;52.944;9.098;2022-10-24T04:32:40;13.00;94.30
21108;DHT22;10712;52.944;9.098;2022-10-24T04:35:06;13.00;94.30
21108;DHT22;10712;52.944;9.098;2022-10-24T04:37:32;13.00;94.30
21108;DHT22;10712;52.944;9.098;2022-10-24T04:39:58;13.00;94.30
21108;DHT22;10712;52.944;9.098;2022-10-24T04:42:24;13.00;94.30
21108;DHT22;10712;52.944;9.098;2022-10-24T04:44:50;13.00;94.30
21108;DHT22;10712;52.944;9.098;2022-10-24T04:47:16;13.00;94.30
21108;DHT22;10712;52.944;9.098;2022-10-24T04:49:43;13.00;94.30
21108;DHT22;10712;52.944;9.098;2022-10-24T04:52:08;13.00;94.30
21108;DHT22;10712;52.944;9.098;2022-10-24T04:54:34;13.00;94.30
21108;DHT22;10712;52.944;9.098;2022-10-24T04:57:00;13.00;94.30
21108;DHT22;10712;52.944;9.098;2022-10-24T04:59:26;12.90;94.30
21108;DHT22;10712;52.944;9.098;2022-10-24T05:01:52;12.90;94.30
21108;DHT22;10712;52.944;9.098;2022-10-24T05:04:19;12.90;94.30
21108;DHT22;10712;52.944;9.098;2022-10-24T05:06:46;12.90;94.30
21108;DHT22;10712;52.944;9.098;2022-10-24T05:09:13;12.90;94.30
21108;DHT22;10712;52.944;9.098;2022-10-24T05:11:39;12.90;94.30
21108;DHT22;10712;52.944;9.098;2022-10-24T05:14:05;12.80;94.30
21108;DHT22;10712;52.944;9.098;2022-10-24T05:16:31;12.90;94.30
21108;DHT22;10712;52.944;9.098;2022-10-24T05:18:57;12.80;94.30
21108;DHT22;10712;52.944;9.098;2022-10-24T05:21:23;12.80;94.30
21108;DHT22;10712;52.944;9.098;2022-10-24T05:23:49;12.80;94.30
21108;DHT22;10712;52.944;9.098;2022-10-24T05:26:15;12.80;94.30
21108;DHT22;10712;52.944;9.098;2022-10-24T05:28:40;12.80;94.30
21108;DHT22;10712;52.944;9.098;2022-10-24T05:31:06;12.80;94.30
21108;DHT22;10712;52.944;9.098;2022-10-24T05:33:32;12.80;94.30
21108;DHT22;10712;52.944;9.098;2022-10-24T05:35:58;12.80;94.30
21108;DHT22;10712;52.944;9.098;2022-10-24T05:38:24;12.80;94.30
21108;DHT22;10712;52.944;9.098;2022-10-24T05:40:49;12.90;94.30
21108;DHT22;10712;52.944;9.098;2022-10-24T05:43:16;12.90;94.30
21108;DHT22;10712;52.944;9.098;2022-10-24T05:45:43;12.90;94.30
21108;DHT22;10712;52.944;9.098;2022-10-24T05:48:09;12.90;94.30
21108;DHT22;10712;52.944;9.098;2022-10-24T05:50:35;12.90;94.30
21108;DHT22;10712;52.944;9.098;2022-10-24T05:53:01;12.90;94.30
21108;DHT22;10712;52.944;9.098;2022-10-24T05:55:27;12.90;94.30
21108;DHT22;10712;52.944;9.098;2022-10-24T05:57:53;12.90;94.30
21108;DHT22;10712;52.944;9.098;2022-10-24T06:00:19;12.90;94.30
21108;DHT22;10712;52.944;9.098;2022-10-24T06:02:45;12.90;94.30
21108;DHT22;10712;52.944;9.098;2022-10-24T06:05:11;12.90;94.30
21108;DHT22;10712;52.944;9.098;2022-10-24T06:07:39;12.90;94.30
21108;DHT22;10712;52.944;9.098;2022-10-24T06:10:07;12.90;94.30
21108;DHT22;10712;52.944;9.098;2022-10-24T06:12:34;12.90;94.30
21108;DHT22;10712;52.944;9.098;2022-10-24T06:15:01;12.90;94.30
21108;DHT22;10712;52.944;9.098;2022-10-24T06:17:29;12.90;94.30
21108;DHT22;10712;52.944;9.098;2022-10-24T06:19:55;12.90;94.30
21108;DHT22;10712;52.944;9.098;2022-10-24T06:22:21;12.90;94.30
21108;DHT22;10712;52.944;9.098;2022-10-24T06:24:49;12.90;94.30
21108;DHT22;10712;52.944;9.098;2022-10-24T06:27:15;12.80;94.30
21108;DHT22;10712;52.944;9.098;2022-10-24T06:29:41;12.80;94.30
21108;DHT22;10712;52.944;9.098;2022-10-24T06:32:07;12.80;94.30
21108;DHT22;10712;52.944;9.098;2022-10-24T06:34:33;12.80;94.30
21108;DHT22;10712;52.944;9.098;2022-10-24T06:37:00;12.80;94.30
21108;DHT22;10712;52.944;9.098;2022-10-24T06:39:26;12.80;94.30
21108;DHT22;10712;52.944;9.098;2022-10-24T06:41:52;12.80;94.30
21108;DHT22;10712;52.944;9.098;2022-10-24T06:44:17;12.80;94.30
21108;DHT22;10712;52.944;9.098;2022-10-24T06:46:43;12.80;94.30
21108;DHT22;10712;52.944;9.098;2022-10-24T06:49:11;12.80;94.30
21108;DHT22;10712;52.944;9.098;2022-10-24T06:51:39;12.80;94.30
21108;DHT22;10712;52.944;9.098;2022-10-24T06:54:05;12.80;94.30
21108;DHT22;10712;52.944;9.098;2022-10-24T06:56:31;12.80;94.30
21108;DHT22;10712;52.944;9.098;2022-10-24T06:58:56;12.80;94.30
21108;DHT22;10712;52.944;9.098;2022-10-24T07:01:24;12.80;94.30
21108;DHT22;10712;52.944;9.098;2022-10-24T07:03:51;12.80;94.30
21108;DHT22;10712;52.944;9.098;2022-10-24T07:06:24;12.80;94.30
21108;DHT22;10712;52.944;9.098;2022-10-24T07:08:52;12.80;94.30
21108;DHT22;10712;52.944;9.098;2022-10-24T07:11:19;12.80;94.30
21108;DHT22;10712;52.944;9.098;2022-10-24T07:13:45;12.80;94.30
21108;DHT22;10712;52.944;9.098;2022-10-24T07:16:11;12.90;94.30
21108;DHT22;10712;52.944;9.098;2022-10-24T07:18:37;12.90;94.30
21108;DHT22;10712;52.944;9.098;2022-10-24T07:21:05;12.90;94.30
21108;DHT22;10712;52.944;9.098;2022-10-24T07:23:33;12.90;94.30
21108;DHT22;10712;52.944;9.098;2022-10-24T07:26:11;13.00;94.30
21108;DHT22;10712;52.944;9.098;2022-10-24T07:28:43;13.00;94.30
21108;DHT22;10712;52.944;9.098;2022-10-24T07:31:12;13.00;94.30
21108;DHT22;10712;52.944;9.098;2022-10-24T07:33:41;13.00;94.30
21108;DHT22;10712;52.944;9.098;2022-10-24T07:36:07;13.00;94.30
21108;DHT22;10712;52.944;9.098;2022-10-24T07:38:33;13.10;94.30
21108;DHT22;10712;52.944;9.098;2022-10-24T07:41:04;13.10;94.30
21108;DHT22;10712;52.944;9.098;2022-10-24T07:43:30;13.10;94.30
21108;DHT22;10712;52.944;9.098;2022-10-24T07:45:57;13.10;94.30
21108;DHT22;10712;52.944;9.098;2022-10-24T07:48:22;13.10;94.30
21108;DHT22;10712;52.944;9.098;2022-10-24T07:50:48;13.10;94.30
21108;DHT22;10712;52.944;9.098;2022-10-24T07:53:14;13.20;94.30
21108;DHT22;10712;52.944;9.098;2022-10-24T07:55:42;13.20;94.30
21108;DHT22;10712;52.944;9.098;2022-10-24T07:58:09;13.20;94.30
21108;DHT22;10712;52.944;9.098;2022-10-24T08:00:36;13.30;94.30
21108;DHT22;10712;52.944;9.098;2022-10-24T08:03:02;13.40;94.30
21108;DHT22;10712;52.944;9.098;2022-10-24T08:05:28;13.40;94.30
21108;DHT22;10712;52.944;9.098;2022-10-24T08:07:54;13.40;94.30
21108;DHT22;10712;52.944;9.098;2022-10-24T08:10:20;13.40;94.30
21108;DHT22;10712;52.944;9.098;2022-10-24T08:12:46;13.50;94.30
21108;DHT22;10712;52.944;9.098;2022-10-24T08:15:12;13.50;94.30
21108;DHT22;10712;52.944;9.098;2022-10-24T08:17:37;13.60;94.30
21108;DHT22;10712;52.944;9.098;2022-10-24T08:20:05;13.60;94.30
21108;DHT22;10712;52.944;9.098;2022-10-24T08:22:33;13.70;94.30
21108;DHT22;10712;52.944;9.098;2022-10-24T08:25:00;13.70;94.30
21108;DHT22;10712;52.944;9.098;2022-10-24T08:27:26;13.80;94.30
21108;DHT22;10712;52.944;9.098;2022-10-24T08:29:53;13.90;94.30
21108;DHT22;10712;52.944;9.098;2022-10-24T08:32:19;13.90;94.30
21108;DHT22;10712;52.944;9.098;2022-10-24T08:34:45;14.00;94.30
21108;DHT22;10712;52.944;9.098;2022-10-24T08:37:11;14.00;94.30
21108;DHT22;10712;52.944;9.098;2022-10-24T08:39:37;14.10;94.30
21108;DHT22;10712;52.944;9.098;2022-10-24T08:42:06;14.10;94.30
21108;DHT22;10712;52.944;9.098;2022-10-24T08:44:38;14.20;94.30
21108;DHT22;10712;52.944;9.098;2022-10-24T08:50:31;14.30;94.30
21108;DHT22;10712;52.944;9.098;2022-10-24T08:53:05;14.30;94.30
21108;DHT22;10712;52.944;9.098;2022-10-24T08:55:47;14.40;94.30
21108;DHT22;10712;52.944;9.098;2022-10-24T08:58:24;14.50;94.30
21108;DHT22;10712;52.944;9.098;2022-10-24T09:00:55;14.60;94.30
21108;DHT22;10712;52.944;9.098;2022-10-24T09:06:01;14.70;94.30
21108;DHT22;10712;52.944;9.098;2022-10-24T09:08:50;14.80;94.30
21108;DHT22;10712;52.944;9.098;2022-10-24T09:14:19;14.90;94.10
21108;DHT22;10712;52.944;9.098;2022-10-24T09:16:59;15.00;93.70
21108;DHT22;10712;52.944;9.098;2022-10-24T09:19:34;15.10;93.40
21108;DHT22;10712;52.944;9.098;2022-10-24T09:22:00;15.20;93.00
21108;DHT22;10712;52.944;9.098;2022-10-24T09:24:33;15.30;92.20
21108;DHT22;10712;52.944;9.098;2022-10-24T09:27:32;15.30;91.70
21108;DHT22;10712;52.944;9.098;2022-10-24T09:30:01;15.40;90.30
21108;DHT22;10712;52.944;9.098;2022-10-24T09:32:30;15.50;89.20
21108;DHT22;10712;52.944;9.098;2022-10-24T09:35:04;15.60;87.70
21108;DHT22;10712;52.944;9.098;2022-10-24T09:37:53;15.70;87.50
21108;DHT22;10712;52.944;9.098;2022-10-24T09:40:29;15.80;86.80
21108;DHT22;10712;52.944;9.098;2022-10-24T09:45:43;16.00;85.70
21108;DHT22;10712;52.944;9.098;2022-10-24T09:50:49;16.10;85.30
21108;DHT22;10712;52.944;9.098;2022-10-24T09:53:25;16.20;85.20
21108;DHT22;10712;52.944;9.098;2022-10-24T09:56:08;16.20;84.90
21108;DHT22;10712;52.944;9.098;2022-10-24T09:58:37;16.30;84.60
21108;DHT22;10712;52.944;9.098;2022-10-24T10:01:20;16.40;84.40
21108;DHT22;10712;52.944;9.098;2022-10-24T10:04:01;16.40;84.00
21108;DHT22;10712;52.944;9.098;2022-10-24T10:06:29;16.40;84.10
21108;DHT22;10712;52.944;9.098;2022-10-24T10:08:57;16.40;83.40
21108;DHT22;10712;52.944;9.098;2022-10-24T10:11:25;16.40;82.60
21108;DHT22;10712;52.944;9.098;2022-10-24T10:13:55;16.40;82.70
21108;DHT22;10712;52.944;9.098;2022-10-24T10:16:30;16.40;82.80
21108;DHT22;10712;52.944;9.098;2022-10-24T10:19:20;16.40;82.80
21108;DHT22;10712;52.944;9.098;2022-10-24T10:24:37;16.50;82.20
21108;DHT22;10712;52.944;9.098;2022-10-24T10:30:13;16.60;81.50
21108;DHT22;10712;52.944;9.098;2022-10-24T10:35:36;16.70;81.90
21108;DHT22;10712;52.944;9.098;2022-10-24T10:44:37;16.90;80.30
21108;DHT22;10712;52.944;9.098;2022-10-24T10:51:01;16.90;79.70
21108;DHT22;10712;52.944;9.098;2022-10-24T10:56:41;16.80;78.70
21108;DHT22;10712;52.944;9.098;2022-10-24T11:11:49;16.70;79.50
21108;DHT22;10712;52.944;9.098;2022-10-24T11:14:42;16.70;79.90
21108;DHT22;10712;52.944;9.098;2022-10-24T11:17:21;16.80;79.30
21108;DHT22;10712;52.944;9.098;2022-10-24T11:20:15;16.80;78.70
21108;DHT22;10712;52.944;9.098;2022-10-24T11:22:53;16.90;77.80
21108;DHT22;10712;52.944;9.098;2022-10-24T11:25:32;17.00;77.80
21108;DHT22;10712;52.944;9.098;2022-10-24T11:28:23;17.00;77.60
21108;DHT22;10712;52.944;9.098;2022-10-24T11:31:13;17.00;77.80
21108;DHT22;10712;52.944;9.098;2022-10-24T11:33:53;17.00;78.20
21108;DHT22;10712;52.944;9.098;2022-10-24T11:36:39;17.00;78.50
21108;DHT22;10712;52.944;9.098;2022-10-24T11:42:11;17.00;78.10
21108;DHT22;10712;52.944;9.098;2022-10-24T11:56:27;17.20;76.20
21108;DHT22;10712;52.944;9.098;2022-10-24T11:59:01;17.20;76.60
21108;DHT22;10712;52.944;9.098;2022-10-24T12:18:48;17.00;77.00
21108;DHT22;10712;52.944;9.098;2022-10-24T12:21:23;17.00;76.50
21108;DHT22;10712;52.944;9.098;2022-10-24T12:23:59;17.00;76.40
21108;DHT22;10712;52.944;9.098;2022-10-24T12:26:33;17.00;76.40
21108;DHT22;10712;52.944;9.098;2022-10-24T12:29:01;17.00;76.10
21108;DHT22;10712;52.944;9.098;2022-10-24T12:31:35;17.00;76.40
21108;DHT22;10712;52.944;9.098;2022-10-24T12:39:54;17.00;75.30
21108;DHT22;10712;52.944;9.098;2022-10-24T12:44:50;16.90;75.50
21108;DHT22;10712;52.944;9.098;2022-10-24T12:58:24;16.80;76.70
21108;DHT22;10712;52.944;9.098;2022-10-24T13:06:24;16.70;77.50
21108;DHT22;10712;52.944;9.098;2022-10-24T13:12:06;16.70;77.50
21108;DHT22;10712;52.944;9.098;2022-10-24T13:31:50;16.70;77.80
21108;DHT22;10712;52.944;9.098;2022-10-24T13:37:31;16.70;78.50
21108;DHT22;10712;52.944;9.098;2022-10-24T13:40:19;16.70;78.70
21108;DHT22;10712;52.944;9.098;2022-10-24T13:42:59;16.70;79.00
21108;DHT22;10712;52.944;9.098;2022-10-24T13:48:33;16.60;79.40
21108;DHT22;10712;52.944;9.098;2022-10-24T13:51:13;16.60;80.70
21108;DHT22;10712;52.944;9.098;2022-10-24T13:53:57;16.50;81.70
21108;DHT22;10712;52.944;9.098;2022-10-24T13:56:30;16.40;82.20
21108;DHT22;10712;52.944;9.098;2022-10-24T13:59:01;16.30;83.20
21108;DHT22;10712;52.944;9.098;2022-10-24T14:01:28;16.20;84.30
21108;DHT22;10712;52.944;9.098;2022-10-24T14:03:56;16.10;84.80
21108;DHT22;10712;52.944;9.098;2022-10-24T14:06:33;16.00;85.30
21108;DHT22;10712;52.944;9.098;2022-10-24T14:09:05;16.00;86.00
21108;DHT22;10712;52.944;9.098;2022-10-24T14:11:40;15.90;86.40
21108;DHT22;10712;52.944;9.098;2022-10-24T14:14:32;15.90;86.80
21108;DHT22;10712;52.944;9.098;2022-10-24T14:17:04;15.80;87.20
21108;DHT22;10712;52.944;9.098;2022-10-24T14:19:57;15.80;87.50
21108;DHT22;10712;52.944;9.098;2022-10-24T14:22:29;15.70;87.70
21108;DHT22;10712;52.944;9.098;2022-10-24T14:25:01;15.70;87.90
21108;DHT22;10712;52.944;9.098;2022-10-24T14:27:27;15.70;88.10
21108;DHT22;10712;52.944;9.098;2022-10-24T14:29:59;15.60;88.30
21108;DHT22;10712;52.944;9.098;2022-10-24T14:32:28;15.60;88.50
21108;DHT22;10712;52.944;9.098;2022-10-24T14:34:56;15.60;88.70
21108;DHT22;10712;52.944;9.098;2022-10-24T14:37:32;15.60;88.80
21108;DHT22;10712;52.944;9.098;2022-10-24T14:40:02;15.60;88.90
21108;DHT22;10712;52.944;9.098;2022-10-24T14:42:30;15.60;88.90
21108;DHT22;10712;52.944;9.098;2022-10-24T14:44:56;15.60;89.00
21108;DHT22;10712;52.944;9.098;2022-10-24T14:47:31;15.60;89.00
21108;DHT22;10712;52.944;9.098;2022-10-24T14:50:00;15.60;89.10
21108;DHT22;10712;52.944;9.098;2022-10-24T14:52:29;15.60;89.10
21108;DHT22;10712;52.944;9.098;2022-10-24T14:55:04;15.60;89.20
21108;DHT22;10712;52.944;9.098;2022-10-24T14:57:46;15.50;89.40
21108;DHT22;10712;52.944;9.098;2022-10-24T15:00:34;15.50;89.60
21108;DHT22;10712;52.944;9.098;2022-10-24T15:03:05;15.50;89.80
21108;DHT22;10712;52.944;9.098;2022-10-24T15:05:34;15.50;89.80
21108;DHT22;10712;52.944;9.098;2022-10-24T15:08:19;15.50;89.90
21108;DHT22;10712;52.944;9.098;2022-10-24T15:11:23;15.40;89.80
21108;DHT22;10712;52.944;9.098;2022-10-24T15:13:52;15.40;89.80
21108;DHT22;10712;52.944;9.098;2022-10-24T15:16:25;15.40;89.90
21108;DHT22;10712;52.944;9.098;2022-10-24T15:18:56;15.40;89.90
21108;DHT22;10712;52.944;9.098;2022-10-24T15:21:26;15.30;89.90
21108;DHT22;10712;52.944;9.098;2022-10-24T15:23:58;15.30;89.90
21108;DHT22;10712;52.944;9.098;2022-10-24T15:26:36;15.30;89.80
21108;DHT22;10712;52.944;9.098;2022-10-24T15:31:38;15.30;89.90
21108;DHT22;10712;52.944;9.098;2022-10-24T15:34:14;15.30;89.90
21108;DHT22;10712;52.944;9.098;2022-10-24T15:36:43;15.20;90.00
21108;DHT22;10712;52.944;9.098;2022-10-24T15:39:20;15.20;90.00
21108;DHT22;10712;52.944;9.098;2022-10-24T15:41:49;15.20;90.00
21108;DHT22;10712;52.944;9.098;2022-10-24T15:44:23;15.20;90.00
21108;DHT22;10712;52.944;9.098;2022-10-24T15:46:55;15.20;90.00
21108;DHT22;10712;52.944;9.098;2022-10-24T15:49:21;15.20;89.90
21108;DHT22;10712;52.944;9.098;2022-10-24T15:51:48;15.10;89.80
21108;DHT22;10712;52.944;9.098;2022-10-24T15:54:17;15.10;89.80
21108;DHT22;10712;52.944;9.098;2022-10-24T15:56:44;15.10;89.70
21108;DHT22;10712;52.944;9.098;2022-10-24T15:59:11;15.10;89.50
21108;DHT22;10712;52.944;9.098;2022-10-24T16:01:41;15.10;89.30
21108;DHT22;10712;52.944;9.098;2022-10-24T16:04:18;15.10;89.10
21108;DHT22;10712;52.944;9.098;2022-10-24T16:06:46;15.10;89.00
21108;DHT22;10712;52.944;9.098;2022-10-24T16:09:14;15.10;88.90
21108;DHT22;10712;52.944;9.098;2022-10-24T16:11:45;15.10;88.80
21108;DHT22;10712;52.944;9.098;2022-10-24T16:14:14;15.10;88.90
21108;DHT22;10712;52.944;9.098;2022-10-24T16:16:42;15.10;89.00
21108;DHT22;10712;52.944;9.098;2022-10-24T16:19:08;15.10;89.00
21108;DHT22;10712;52.944;9.098;2022-10-24T16:21:35;15.00;89.00
21108;DHT22;10712;52.944;9.098;2022-10-24T16:24:02;15.00;89.00
21108;DHT22;10712;52.944;9.098;2022-10-24T16:26:28;15.00;89.10
21108;DHT22;10712;52.944;9.098;2022-10-24T16:28:54;15.00;89.10
21108;DHT22;10712;52.944;9.098;2022-10-24T16:31:20;15.00;89.10
21108;DHT22;10712;52.944;9.098;2022-10-24T16:33:49;14.90;89.00
21108;DHT22;10712;52.944;9.098;2022-10-24T16:36:15;14.90;89.10
21108;DHT22;10712;52.944;9.098;2022-10-24T16:38:43;14.90;89.10
21108;DHT22;10712;52.944;9.098;2022-10-24T16:41:19;14.90;89.20
21108;DHT22;10712;52.944;9.098;2022-10-24T16:43:48;14.90;89.20
21108;DHT22;10712;52.944;9.098;2022-10-24T16:46:16;14.90;89.20
21108;DHT22;10712;52.944;9.098;2022-10-24T16:48:44;14.90;89.10
21108;DHT22;10712;52.944;9.098;2022-10-24T16:51:12;14.80;89.10
21108;DHT22;10712;52.944;9.098;2022-10-24T16:53:42;14.80;89.10
21108;DHT22;10712;52.944;9.098;2022-10-24T16:56:12;14.80;89.10
21108;DHT22;10712;52.944;9.098;2022-10-24T16:58:40;14.80;89.20
21108;DHT22;10712;52.944;9.098;2022-10-24T17:01:09;14.80;89.20
21108;DHT22;10712;52.944;9.098;2022-10-24T17:03:37;14.70;89.20
21108;DHT22;10712;52.944;9.098;2022-10-24T17:06:03;14.70;89.30
21108;DHT22;10712;52.944;9.098;2022-10-24T17:08:30;14.70;89.40
21108;DHT22;10712;52.944;9.098;2022-10-24T17:10:56;14.70;89.40
21108;DHT22;10712;52.944;9.098;2022-10-24T17:13:23;14.70;89.50
21108;DHT22;10712;52.944;9.098;2022-10-24T17:15:49;14.70;89.60
21108;DHT22;10712;52.944;9.098;2022-10-24T17:18:16;14.70;89.80
21108;DHT22;10712;52.944;9.098;2022-10-24T17:20:45;14.70;90.00
21108;DHT22;10712;52.944;9.098;2022-10-24T17:23:13;14.70;90.20
21108;DHT22;10712;52.944;9.098;2022-10-24T17:25:41;14.60;90.30
21108;DHT22;10712;52.944;9.098;2022-10-24T17:28:09;14.60;90.60
21108;DHT22;10712;52.944;9.098;2022-10-24T17:30:36;14.60;90.70
21108;DHT22;10712;52.944;9.098;2022-10-24T17:33:02;14.60;90.80
21108;DHT22;10712;52.944;9.098;2022-10-24T17:35:28;14.60;90.90
21108;DHT22;10712;52.944;9.098;2022-10-24T17:40:54;14.50;91.30
21108;DHT22;10712;52.944;9.098;2022-10-24T17:43:27;14.50;91.50
21108;DHT22;10712;52.944;9.098;2022-10-24T17:45:55;14.50;91.60
21108;DHT22;10712;52.944;9.098;2022-10-24T17:48:22;14.50;91.70
21108;DHT22;10712;52.944;9.098;2022-10-24T17:50:49;14.50;91.80
21108;DHT22;10712;52.944;9.098;2022-10-24T17:53:17;14.50;91.90
21108;DHT22;10712;52.944;9.098;2022-10-24T17:55:44;14.50;91.90
21108;DHT22;10712;52.944;9.098;2022-10-24T17:58:10;14.50;92.00
21108;DHT22;10712;52.944;9.098;2022-10-24T18:00:36;14.50;92.20
21108;DHT22;10712;52.944;9.098;2022-10-24T18:03:03;14.50;92.20
21108;DHT22;10712;52.944;9.098;2022-10-24T18:05:30;14.50;92.30
21108;DHT22;10712;52.944;9.098;2022-10-24T18:07:58;14.50;92.30
21108;DHT22;10712;52.944;9.098;2022-10-24T18:10:24;14.50;92.40
21108;DHT22;10712;52.944;9.098;2022-10-24T18:12:50;14.50;92.40
21108;DHT22;10712;52.944;9.098;2022-10-24T18:15:17;14.50;92.40
21108;DHT22;10712;52.944;9.098;2022-10-24T18:17:46;14.50;92.40
21108;DHT22;10712;52.944;9.098;2022-10-24T18:20:13;14.50;92.40
21108;DHT22;10712;52.944;9.098;2022-10-24T18:22:40;14.50;92.40